sensor_id;sensor_type;location;lat;lon;timestamp;temperature;humidity
45849;DHT22;31567;54.600;9.842;2022-07-23T00:02:36;16.70;93.20
45849;DHT22;31567;54.600;9.842;2022-07-23T00:06:16;16.80;93.20
45849;DHT22;31567;54.600;9.842;2022-07-23T00:09:55;16.70;93.20
45849;DHT22;31567;54.600;9.842;2022-07-23T00:13:35;16.80;93.30
45849;DHT22;31567;54.600;9.842;2022-07-23T00:17:15;16.70;93.30
45849;DHT22;31567;54.600;9.842;2022-07-23T00:20:54;16.70;93.40
45849;DHT22;31567;54.600;9.842;2022-07-23T00:24:34;16.80;93.50
45849;DHT22;31567;54.600;9.842;2022-07-23T00:28:14;16.70;93.40
45849;DHT22;31567;54.600;9.842;2022-07-23T00:31:53;16.70;93.40
45849;DHT22;31567;54.600;9.842;2022-07-23T00:35:36;16.60;93.40
45849;DHT22;31567;54.600;9.842;2022-07-23T00:39:15;16.70;93.50
45849;DHT22;31567;54.600;9.842;2022-07-23T00:42:55;16.70;93.60
45849;DHT22;31567;54.600;9.842;2022-07-23T00:46:35;16.60;93.70
45849;DHT22;31567;54.600;9.842;2022-07-23T00:50:14;16.60;93.80
45849;DHT22;31567;54.600;9.842;2022-07-23T00:53:54;16.60;93.80
45849;DHT22;31567;54.600;9.842;2022-07-23T00:57:34;16.50;93.90
45849;DHT22;31567;54.600;9.842;2022-07-23T01:01:13;16.60;93.90
45849;DHT22;31567;54.600;9.842;2022-07-23T01:04:53;16.50;93.90
45849;DHT22;31567;54.600;9.842;2022-07-23T01:08:33;16.50;94.00
45849;DHT22;31567;54.600;9.842;2022-07-23T01:12:13;16.50;94.10
45849;DHT22;31567;54.600;9.842;2022-07-23T01:15:52;16.50;94.20
45849;DHT22;31567;54.600;9.842;2022-07-23T01:19:32;16.50;94.20
45849;DHT22;31567;54.600;9.842;2022-07-23T01:23:11;16.50;94.20
45849;DHT22;31567;54.600;9.842;2022-07-23T01:26:51;16.50;94.20
45849;DHT22;31567;54.600;9.842;2022-07-23T01:30:30;16.50;94.30
45849;DHT22;31567;54.600;9.842;2022-07-23T01:34:10;16.50;94.30
45849;DHT22;31567;54.600;9.842;2022-07-23T01:37:50;16.40;94.20
45849;DHT22;31567;54.600;9.842;2022-07-23T01:41:29;16.40;94.30
45849;DHT22;31567;54.600;9.842;2022-07-23T01:45:09;16.40;94.20
45849;DHT22;31567;54.600;9.842;2022-07-23T01:48:49;16.40;94.20
45849;DHT22;31567;54.600;9.842;2022-07-23T01:52:29;16.40;94.30
45849;DHT22;31567;54.600;9.842;2022-07-23T01:56:09;16.40;94.30
45849;DHT22;31567;54.600;9.842;2022-07-23T01:59:48;16.40;94.30
45849;DHT22;31567;54.600;9.842;2022-07-23T02:03:28;16.40;94.30
45849;DHT22;31567;54.600;9.842;2022-07-23T02:07:07;16.40;94.30
45849;DHT22;31567;54.600;9.842;2022-07-23T02:10:47;16.30;94.20
45849;DHT22;31567;54.600;9.842;2022-07-23T02:14:27;16.40;94.20
45849;DHT22;31567;54.600;9.842;2022-07-23T02:18:07;16.40;94.20
45849;DHT22;31567;54.600;9.842;2022-07-23T02:21:47;16.40;94.30
45849;DHT22;31567;54.600;9.842;2022-07-23T02:25:27;16.30;94.30
45849;DHT22;31567;54.600;9.842;2022-07-23T02:29:07;16.30;94.30
45849;DHT22;31567;54.600;9.842;2022-07-23T02:32:46;16.30;94.30
45849;DHT22;31567;54.600;9.842;2022-07-23T02:36:27;16.30;94.30
45849;DHT22;31567;54.600;9.842;2022-07-23T02:40:07;16.30;94.40
45849;DHT22;31567;54.600;9.842;2022-07-23T02:43:46;16.20;94.40
45849;DHT22;31567;54.600;9.842;2022-07-23T02:47:26;16.30;94.40
45849;DHT22;31567;54.600;9.842;2022-07-23T02:51:06;16.20;94.40
45849;DHT22;31567;54.600;9.842;2022-07-23T02:54:45;16.30;94.50
45849;DHT22;31567;54.600;9.842;2022-07-23T02:58:25;16.30;94.50
45849;DHT22;31567;54.600;9.842;2022-07-23T03:02:05;16.20;94.60
45849;DHT22;31567;54.600;9.842;2022-07-23T03:05:45;16.20;94.70
45849;DHT22;31567;54.600;9.842;2022-07-23T03:09:24;16.30;94.80
45849;DHT22;31567;54.600;9.842;2022-07-23T03:13:04;16.20;94.70
45849;DHT22;31567;54.600;9.842;2022-07-23T03:16:44;16.20;94.70
45849;DHT22;31567;54.600;9.842;2022-07-23T03:20:23;16.20;94.70
45849;DHT22;31567;54.600;9.842;2022-07-23T03:24:03;16.20;94.70
45849;DHT22;31567;54.600;9.842;2022-07-23T03:27:43;16.20;94.70
45849;DHT22;31567;54.600;9.842;2022-07-23T03:31:24;16.20;94.70
45849;DHT22;31567;54.600;9.842;2022-07-23T03:35:04;16.20;94.70
45849;DHT22;31567;54.600;9.842;2022-07-23T03:38:44;16.20;94.70
45849;DHT22;31567;54.600;9.842;2022-07-23T03:42:23;16.20;95.00
45849;DHT22;31567;54.600;9.842;2022-07-23T03:46:03;16.20;94.70
45849;DHT22;31567;54.600;9.842;2022-07-23T03:49:43;16.20;94.80
45849;DHT22;31567;54.600;9.842;2022-07-23T03:53:22;16.30;94.80
45849;DHT22;31567;54.600;9.842;2022-07-23T03:57:02;16.20;94.70
45849;DHT22;31567;54.600;9.842;2022-07-23T04:00:41;16.30;94.80
45849;DHT22;31567;54.600;9.842;2022-07-23T04:04:21;16.30;94.80
45849;DHT22;31567;54.600;9.842;2022-07-23T04:08:00;16.30;95.10
45849;DHT22;31567;54.600;9.842;2022-07-23T04:11:40;16.30;94.70
45849;DHT22;31567;54.600;9.842;2022-07-23T04:15:20;16.30;94.60
45849;DHT22;31567;54.600;9.842;2022-07-23T04:18:59;16.30;94.60
45849;DHT22;31567;54.600;9.842;2022-07-23T04:22:39;16.30;94.60
45849;DHT22;31567;54.600;9.842;2022-07-23T04:26:19;16.20;94.60
45849;DHT22;31567;54.600;9.842;2022-07-23T04:29:58;16.30;94.60
45849;DHT22;31567;54.600;9.842;2022-07-23T04:33:38;16.20;94.70
45849;DHT22;31567;54.600;9.842;2022-07-23T04:37:17;16.20;94.70
45849;DHT22;31567;54.600;9.842;2022-07-23T04:40:57;16.30;94.90
45849;DHT22;31567;54.600;9.842;2022-07-23T04:44:36;16.30;94.90
45849;DHT22;31567;54.600;9.842;2022-07-23T04:48:16;16.30;94.90
45849;DHT22;31567;54.600;9.842;2022-07-23T04:51:55;16.30;94.80
45849;DHT22;31567;54.600;9.842;2022-07-23T04:55:35;16.30;94.70
45849;DHT22;31567;54.600;9.842;2022-07-23T04:59:15;16.20;94.80
45849;DHT22;31567;54.600;9.842;2022-07-23T05:02:54;16.30;94.80
45849;DHT22;31567;54.600;9.842;2022-07-23T05:06:34;16.30;94.80
45849;DHT22;31567;54.600;9.842;2022-07-23T05:10:13;16.30;94.80
45849;DHT22;31567;54.600;9.842;2022-07-23T05:13:53;16.40;94.80
45849;DHT22;31567;54.600;9.842;2022-07-23T05:17:33;16.40;94.70
45849;DHT22;31567;54.600;9.842;2022-07-23T05:21:12;16.50;94.60
45849;DHT22;31567;54.600;9.842;2022-07-23T05:24:52;16.50;94.60
45849;DHT22;31567;54.600;9.842;2022-07-23T05:28:31;16.60;94.50
45849;DHT22;31567;54.600;9.842;2022-07-23T05:32:11;16.60;94.50
45849;DHT22;31567;54.600;9.842;2022-07-23T05:35:50;16.60;94.60
45849;DHT22;31567;54.600;9.842;2022-07-23T05:39:30;16.60;94.60
45849;DHT22;31567;54.600;9.842;2022-07-23T05:43:10;16.60;94.60
45849;DHT22;31567;54.600;9.842;2022-07-23T05:46:49;16.60;94.70
45849;DHT22;31567;54.600;9.842;2022-07-23T05:50:29;16.60;94.70
45849;DHT22;31567;54.600;9.842;2022-07-23T05:54:08;16.60;94.70
45849;DHT22;31567;54.600;9.842;2022-07-23T05:57:48;16.60;94.80
45849;DHT22;31567;54.600;9.842;2022-07-23T06:01:27;16.70;94.80
45849;DHT22;31567;54.600;9.842;2022-07-23T06:05:07;16.70;94.80
45849;DHT22;31567;54.600;9.842;2022-07-23T06:08:47;16.70;94.70
45849;DHT22;31567;54.600;9.842;2022-07-23T06:12:27;16.80;94.70
45849;DHT22;31567;54.600;9.842;2022-07-23T06:16:06;16.90;94.70
45849;DHT22;31567;54.600;9.842;2022-07-23T06:19:46;16.90;94.50
45849;DHT22;31567;54.600;9.842;2022-07-23T06:23:26;16.90;94.40
45849;DHT22;31567;54.600;9.842;2022-07-23T06:27:06;17.00;94.40
45849;DHT22;31567;54.600;9.842;2022-07-23T06:30:45;17.00;94.20
45849;DHT22;31567;54.600;9.842;2022-07-23T06:34:25;17.10;94.10
45849;DHT22;31567;54.600;9.842;2022-07-23T06:38:04;17.00;94.00
45849;DHT22;31567;54.600;9.842;2022-07-23T06:41:44;17.20;94.30
45849;DHT22;31567;54.600;9.842;2022-07-23T06:45:23;17.10;93.70
45849;DHT22;31567;54.600;9.842;2022-07-23T06:49:03;17.10;93.20
45849;DHT22;31567;54.600;9.842;2022-07-23T06:52:43;17.10;93.20
45849;DHT22;31567;54.600;9.842;2022-07-23T06:56:23;17.10;93.30
45849;DHT22;31567;54.600;9.842;2022-07-23T07:00:03;17.10;93.20
45849;DHT22;31567;54.600;9.842;2022-07-23T07:03:43;17.10;93.00
45849;DHT22;31567;54.600;9.842;2022-07-23T07:07:23;17.10;92.80
45849;DHT22;31567;54.600;9.842;2022-07-23T07:11:03;17.10;92.90
45849;DHT22;31567;54.600;9.842;2022-07-23T07:14:43;17.10;92.70
45849;DHT22;31567;54.600;9.842;2022-07-23T07:18:22;17.10;92.70
45849;DHT22;31567;54.600;9.842;2022-07-23T07:22:02;17.00;92.70
45849;DHT22;31567;54.600;9.842;2022-07-23T07:25:42;17.00;92.60
45849;DHT22;31567;54.600;9.842;2022-07-23T07:29:21;17.00;92.40
45849;DHT22;31567;54.600;9.842;2022-07-23T07:33:01;17.10;92.40
45849;DHT22;31567;54.600;9.842;2022-07-23T07:36:41;17.00;92.50
45849;DHT22;31567;54.600;9.842;2022-07-23T07:40:22;17.10;92.50
45849;DHT22;31567;54.600;9.842;2022-07-23T07:44:02;17.10;92.60
45849;DHT22;31567;54.600;9.842;2022-07-23T07:47:41;17.20;92.60
45849;DHT22;31567;54.600;9.842;2022-07-23T07:51:21;17.20;92.60
45849;DHT22;31567;54.600;9.842;2022-07-23T07:55:01;17.20;92.70
45849;DHT22;31567;54.600;9.842;2022-07-23T07:58:40;17.10;92.80
45849;DHT22;31567;54.600;9.842;2022-07-23T08:02:20;17.10;92.90
45849;DHT22;31567;54.600;9.842;2022-07-23T08:05:59;17.20;93.00
45849;DHT22;31567;54.600;9.842;2022-07-23T08:09:39;17.20;93.10
45849;DHT22;31567;54.600;9.842;2022-07-23T08:13:20;17.20;93.20
45849;DHT22;31567;54.600;9.842;2022-07-23T08:17:00;17.30;93.20
45849;DHT22;31567;54.600;9.842;2022-07-23T08:20:39;17.30;93.30
45849;DHT22;31567;54.600;9.842;2022-07-23T08:24:19;17.20;93.30
45849;DHT22;31567;54.600;9.842;2022-07-23T08:28:00;17.30;93.30
45849;DHT22;31567;54.600;9.842;2022-07-23T08:31:39;17.30;93.50
45849;DHT22;31567;54.600;9.842;2022-07-23T08:35:27;17.30;93.50
45849;DHT22;31567;54.600;9.842;2022-07-23T08:39:07;17.30;93.50
45849;DHT22;31567;54.600;9.842;2022-07-23T08:42:48;17.30;93.50
45849;DHT22;31567;54.600;9.842;2022-07-23T08:46:28;17.20;93.80
45849;DHT22;31567;54.600;9.842;2022-07-23T08:50:08;17.20;94.00
45849;DHT22;31567;54.600;9.842;2022-07-23T08:53:50;17.10;94.40
45849;DHT22;31567;54.600;9.842;2022-07-23T08:57:30;17.00;94.60
45849;DHT22;31567;54.600;9.842;2022-07-23T09:01:09;16.90;94.60
45849;DHT22;31567;54.600;9.842;2022-07-23T09:04:49;16.90;94.60
45849;DHT22;31567;54.600;9.842;2022-07-23T09:08:38;16.90;94.60
45849;DHT22;31567;54.600;9.842;2022-07-23T09:12:18;16.90;94.70
45849;DHT22;31567;54.600;9.842;2022-07-23T09:16:12;16.90;94.80
45849;DHT22;31567;54.600;9.842;2022-07-23T09:20:09;17.00;94.60
45849;DHT22;31567;54.600;9.842;2022-07-23T09:23:57;17.00;94.80
45849;DHT22;31567;54.600;9.842;2022-07-23T09:27:57;16.90;95.30
45849;DHT22;31567;54.600;9.842;2022-07-23T09:31:50;16.90;95.70
45849;DHT22;31567;54.600;9.842;2022-07-23T09:36:03;16.80;96.00
45849;DHT22;31567;54.600;9.842;2022-07-23T09:39:44;16.90;96.20
45849;DHT22;31567;54.600;9.842;2022-07-23T09:43:27;16.90;96.50
45849;DHT22;31567;54.600;9.842;2022-07-23T09:47:07;17.00;95.90
45849;DHT22;31567;54.600;9.842;2022-07-23T09:50:47;17.10;95.70
45849;DHT22;31567;54.600;9.842;2022-07-23T09:54:36;17.10;95.30
45849;DHT22;31567;54.600;9.842;2022-07-23T09:58:17;17.10;94.90
45849;DHT22;31567;54.600;9.842;2022-07-23T10:02:01;17.30;94.60
45849;DHT22;31567;54.600;9.842;2022-07-23T10:05:42;17.30;94.10
45849;DHT22;31567;54.600;9.842;2022-07-23T10:09:26;17.40;94.20
45849;DHT22;31567;54.600;9.842;2022-07-23T10:13:07;17.40;93.70
45849;DHT22;31567;54.600;9.842;2022-07-23T10:17:05;17.40;93.60
45849;DHT22;31567;54.600;9.842;2022-07-23T10:20:47;17.40;93.30
45849;DHT22;31567;54.600;9.842;2022-07-23T10:32:25;17.30;93.50
45849;DHT22;31567;54.600;9.842;2022-07-23T10:37:04;17.30;94.00
45849;DHT22;31567;54.600;9.842;2022-07-23T10:40:20;17.30;93.70
45849;DHT22;31567;54.600;9.842;2022-07-23T10:44:14;17.30;93.90
45849;DHT22;31567;54.600;9.842;2022-07-23T10:47:55;17.40;93.80
45849;DHT22;31567;54.600;9.842;2022-07-23T10:51:35;17.40;93.90
45849;DHT22;31567;54.600;9.842;2022-07-23T10:56:02;17.40;93.60
45849;DHT22;31567;54.600;9.842;2022-07-23T10:59:17;17.40;93.50
45849;DHT22;31567;54.600;9.842;2022-07-23T11:02:59;17.40;93.70
45849;DHT22;31567;54.600;9.842;2022-07-23T11:10:37;17.70;93.00
45849;DHT22;31567;54.600;9.842;2022-07-23T11:26:46;18.50;91.10
45849;DHT22;31567;54.600;9.842;2022-07-23T11:34:26;18.80;91.40
45849;DHT22;31567;54.600;9.842;2022-07-23T11:38:27;19.10;90.50
45849;DHT22;31567;54.600;9.842;2022-07-23T11:42:08;19.10;90.30
45849;DHT22;31567;54.600;9.842;2022-07-23T11:45:50;19.00;90.20
45849;DHT22;31567;54.600;9.842;2022-07-23T11:49:30;18.80;90.00
45849;DHT22;31567;54.600;9.842;2022-07-23T11:53:10;18.80;90.10
45849;DHT22;31567;54.600;9.842;2022-07-23T11:57:00;18.60;90.10
45849;DHT22;31567;54.600;9.842;2022-07-23T12:00:41;18.60;90.40
45849;DHT22;31567;54.600;9.842;2022-07-23T12:04:20;18.70;90.60
45849;DHT22;31567;54.600;9.842;2022-07-23T12:08:01;18.80;90.70
45849;DHT22;31567;54.600;9.842;2022-07-23T12:12:01;19.00;90.20
45849;DHT22;31567;54.600;9.842;2022-07-23T12:15:44;19.40;88.60
45849;DHT22;31567;54.600;9.842;2022-07-23T12:19:24;19.60;87.20
45849;DHT22;31567;54.600;9.842;2022-07-23T12:23:06;19.50;85.20
45849;DHT22;31567;54.600;9.842;2022-07-23T12:27:12;19.50;85.20
45849;DHT22;31567;54.600;9.842;2022-07-23T12:30:54;19.50;85.60
45849;DHT22;31567;54.600;9.842;2022-07-23T12:34:34;19.60;86.40
45849;DHT22;31567;54.600;9.842;2022-07-23T12:38:18;19.80;85.00
45849;DHT22;31567;54.600;9.842;2022-07-23T12:41:58;19.80;85.40
45849;DHT22;31567;54.600;9.842;2022-07-23T12:45:47;20.00;85.30
45849;DHT22;31567;54.600;9.842;2022-07-23T12:49:27;20.00;84.40
45849;DHT22;31567;54.600;9.842;2022-07-23T12:53:12;20.00;84.30
45849;DHT22;31567;54.600;9.842;2022-07-23T12:56:52;19.80;84.90
45849;DHT22;31567;54.600;9.842;2022-07-23T13:00:33;19.70;84.90
45849;DHT22;31567;54.600;9.842;2022-07-23T13:04:27;19.60;85.70
45849;DHT22;31567;54.600;9.842;2022-07-23T13:08:07;19.60;86.10
45849;DHT22;31567;54.600;9.842;2022-07-23T13:11:47;19.50;85.60
45849;DHT22;31567;54.600;9.842;2022-07-23T13:15:27;19.50;86.00
45849;DHT22;31567;54.600;9.842;2022-07-23T13:19:07;19.50;85.90
45849;DHT22;31567;54.600;9.842;2022-07-23T13:22:46;19.60;86.00
45849;DHT22;31567;54.600;9.842;2022-07-23T13:26:27;19.60;85.50
45849;DHT22;31567;54.600;9.842;2022-07-23T13:30:07;19.70;86.50
45849;DHT22;31567;54.600;9.842;2022-07-23T13:33:48;19.70;86.10
45849;DHT22;31567;54.600;9.842;2022-07-23T13:37:28;19.80;85.40
45849;DHT22;31567;54.600;9.842;2022-07-23T13:41:08;19.90;84.50
45849;DHT22;31567;54.600;9.842;2022-07-23T13:44:47;19.90;85.10
45849;DHT22;31567;54.600;9.842;2022-07-23T13:48:27;20.00;84.60
45849;DHT22;31567;54.600;9.842;2022-07-23T13:52:08;20.00;84.40
45849;DHT22;31567;54.600;9.842;2022-07-23T13:55:49;19.90;84.20
45849;DHT22;31567;54.600;9.842;2022-07-23T13:59:29;19.90;84.60
45849;DHT22;31567;54.600;9.842;2022-07-23T14:03:09;19.80;84.70
45849;DHT22;31567;54.600;9.842;2022-07-23T14:06:49;19.70;85.40
45849;DHT22;31567;54.600;9.842;2022-07-23T14:10:29;19.60;86.40
45849;DHT22;31567;54.600;9.842;2022-07-23T14:14:08;19.60;87.00
45849;DHT22;31567;54.600;9.842;2022-07-23T14:17:48;19.50;86.20
45849;DHT22;31567;54.600;9.842;2022-07-23T14:21:29;19.40;86.50
45849;DHT22;31567;54.600;9.842;2022-07-23T14:25:10;19.30;85.70
45849;DHT22;31567;54.600;9.842;2022-07-23T14:28:50;19.20;85.30
45849;DHT22;31567;54.600;9.842;2022-07-23T14:32:29;19.30;85.10
45849;DHT22;31567;54.600;9.842;2022-07-23T14:36:09;19.30;85.00
45849;DHT22;31567;54.600;9.842;2022-07-23T14:39:49;19.30;84.50
45849;DHT22;31567;54.600;9.842;2022-07-23T14:43:28;19.50;85.20
45849;DHT22;31567;54.600;9.842;2022-07-23T14:47:08;19.70;84.10
45849;DHT22;31567;54.600;9.842;2022-07-23T14:50:48;19.80;83.30
45849;DHT22;31567;54.600;9.842;2022-07-23T14:54:28;19.80;82.50
45849;DHT22;31567;54.600;9.842;2022-07-23T14:58:09;20.10;82.80
45849;DHT22;31567;54.600;9.842;2022-07-23T15:01:49;20.10;82.00
45849;DHT22;31567;54.600;9.842;2022-07-23T15:05:28;20.00;81.60
45849;DHT22;31567;54.600;9.842;2022-07-23T15:09:09;20.00;82.00
45849;DHT22;31567;54.600;9.842;2022-07-23T15:12:50;20.00;82.00
45849;DHT22;31567;54.600;9.842;2022-07-23T15:16:30;20.00;82.20
45849;DHT22;31567;54.600;9.842;2022-07-23T15:20:10;19.90;82.10
45849;DHT22;31567;54.600;9.842;2022-07-23T15:23:49;19.90;82.40
45849;DHT22;31567;54.600;9.842;2022-07-23T15:27:30;19.80;82.50
45849;DHT22;31567;54.600;9.842;2022-07-23T15:31:10;19.70;82.70
45849;DHT22;31567;54.600;9.842;2022-07-23T15:34:50;19.70;83.30
45849;DHT22;31567;54.600;9.842;2022-07-23T15:38:29;19.70;83.40
45849;DHT22;31567;54.600;9.842;2022-07-23T15:42:09;19.60;82.00
45849;DHT22;31567;54.600;9.842;2022-07-23T15:45:50;19.50;82.30
45849;DHT22;31567;54.600;9.842;2022-07-23T15:49:30;19.40;82.40
45849;DHT22;31567;54.600;9.842;2022-07-23T15:53:10;19.40;83.00
45849;DHT22;31567;54.600;9.842;2022-07-23T15:56:49;19.30;82.90
45849;DHT22;31567;54.600;9.842;2022-07-23T16:00:29;19.20;83.10
45849;DHT22;31567;54.600;9.842;2022-07-23T16:04:09;19.20;83.40
45849;DHT22;31567;54.600;9.842;2022-07-23T16:07:48;19.20;83.80
45849;DHT22;31567;54.600;9.842;2022-07-23T16:11:28;19.30;83.90
45849;DHT22;31567;54.600;9.842;2022-07-23T16:15:08;19.20;84.20
45849;DHT22;31567;54.600;9.842;2022-07-23T16:18:47;19.10;84.70
45849;DHT22;31567;54.600;9.842;2022-07-23T16:22:30;19.00;84.20
45849;DHT22;31567;54.600;9.842;2022-07-23T16:26:10;19.00;84.50
45849;DHT22;31567;54.600;9.842;2022-07-23T16:29:49;19.10;84.10
45849;DHT22;31567;54.600;9.842;2022-07-23T16:33:29;19.00;83.40
45849;DHT22;31567;54.600;9.842;2022-07-23T16:37:09;19.00;83.70
45849;DHT22;31567;54.600;9.842;2022-07-23T16:40:49;18.90;83.40
45849;DHT22;31567;54.600;9.842;2022-07-23T16:44:29;18.90;83.20
45849;DHT22;31567;54.600;9.842;2022-07-23T16:48:08;18.80;82.60
45849;DHT22;31567;54.600;9.842;2022-07-23T16:51:48;18.90;82.30
45849;DHT22;31567;54.600;9.842;2022-07-23T16:55:27;18.80;81.30
45849;DHT22;31567;54.600;9.842;2022-07-23T16:59:07;18.80;81.00
45849;DHT22;31567;54.600;9.842;2022-07-23T17:02:47;18.80;81.20
45849;DHT22;31567;54.600;9.842;2022-07-23T17:06:26;18.80;82.30
45849;DHT22;31567;54.600;9.842;2022-07-23T17:10:08;18.70;82.60
45849;DHT22;31567;54.600;9.842;2022-07-23T17:13:48;18.60;83.00
45849;DHT22;31567;54.600;9.842;2022-07-23T17:17:28;18.50;82.80
45849;DHT22;31567;54.600;9.842;2022-07-23T17:21:07;18.60;82.80
45849;DHT22;31567;54.600;9.842;2022-07-23T17:24:47;18.50;82.80
45849;DHT22;31567;54.600;9.842;2022-07-23T17:28:28;18.40;82.90
45849;DHT22;31567;54.600;9.842;2022-07-23T17:32:07;18.40;82.20
45849;DHT22;31567;54.600;9.842;2022-07-23T17:35:47;18.40;82.10
45849;DHT22;31567;54.600;9.842;2022-07-23T17:39:31;18.30;81.40
45849;DHT22;31567;54.600;9.842;2022-07-23T17:43:11;18.30;81.60
45849;DHT22;31567;54.600;9.842;2022-07-23T17:46:50;18.30;82.10
45849;DHT22;31567;54.600;9.842;2022-07-23T17:50:30;18.20;81.50
45849;DHT22;31567;54.600;9.842;2022-07-23T17:54:10;18.20;81.60
45849;DHT22;31567;54.600;9.842;2022-07-23T17:57:50;18.10;81.80
45849;DHT22;31567;54.600;9.842;2022-07-23T18:01:30;18.00;81.80
45849;DHT22;31567;54.600;9.842;2022-07-23T18:05:10;18.10;82.10
45849;DHT22;31567;54.600;9.842;2022-07-23T18:08:50;18.00;82.30
45849;DHT22;31567;54.600;9.842;2022-07-23T18:12:30;18.00;82.60
45849;DHT22;31567;54.600;9.842;2022-07-23T18:16:09;17.90;82.60
45849;DHT22;31567;54.600;9.842;2022-07-23T18:19:49;17.90;82.40
45849;DHT22;31567;54.600;9.842;2022-07-23T18:23:29;17.90;82.60
45849;DHT22;31567;54.600;9.842;2022-07-23T18:27:10;17.90;82.50
45849;DHT22;31567;54.600;9.842;2022-07-23T18:30:50;17.90;82.50
45849;DHT22;31567;54.600;9.842;2022-07-23T18:34:30;17.90;82.90
45849;DHT22;31567;54.600;9.842;2022-07-23T18:38:09;17.80;82.60
45849;DHT22;31567;54.600;9.842;2022-07-23T18:41:49;17.90;82.90
45849;DHT22;31567;54.600;9.842;2022-07-23T18:45:29;17.80;82.60
45849;DHT22;31567;54.600;9.842;2022-07-23T18:49:08;17.80;82.80
45849;DHT22;31567;54.600;9.842;2022-07-23T18:52:48;17.80;83.00
45849;DHT22;31567;54.600;9.842;2022-07-23T18:56:28;17.80;83.10
45849;DHT22;31567;54.600;9.842;2022-07-23T19:00:08;17.80;83.20
45849;DHT22;31567;54.600;9.842;2022-07-23T19:03:48;17.90;83.30
45849;DHT22;31567;54.600;9.842;2022-07-23T19:07:28;17.90;83.50
45849;DHT22;31567;54.600;9.842;2022-07-23T19:11:07;18.00;83.60
45849;DHT22;31567;54.600;9.842;2022-07-23T19:14:47;17.90;83.60
45849;DHT22;31567;54.600;9.842;2022-07-23T19:18:27;17.90;83.80
45849;DHT22;31567;54.600;9.842;2022-07-23T19:22:06;17.80;83.90
45849;DHT22;31567;54.600;9.842;2022-07-23T19:25:48;17.80;84.40
45849;DHT22;31567;54.600;9.842;2022-07-23T19:29:27;17.80;84.50
45849;DHT22;31567;54.600;9.842;2022-07-23T19:33:07;17.70;84.80
45849;DHT22;31567;54.600;9.842;2022-07-23T19:36:47;17.70;85.10
45849;DHT22;31567;54.600;9.842;2022-07-23T19:40:26;17.60;85.50
45849;DHT22;31567;54.600;9.842;2022-07-23T19:44:06;17.50;85.80
45849;DHT22;31567;54.600;9.842;2022-07-23T19:47:46;17.40;86.00
45849;DHT22;31567;54.600;9.842;2022-07-23T19:51:26;17.30;86.30
45849;DHT22;31567;54.600;9.842;2022-07-23T19:55:07;17.20;86.60
45849;DHT22;31567;54.600;9.842;2022-07-23T19:58:47;17.10;86.90
45849;DHT22;31567;54.600;9.842;2022-07-23T20:02:27;17.00;87.30
45849;DHT22;31567;54.600;9.842;2022-07-23T20:06:07;16.90;87.70
45849;DHT22;31567;54.600;9.842;2022-07-23T20:09:47;16.90;88.20
45849;DHT22;31567;54.600;9.842;2022-07-23T20:13:26;16.80;88.50
45849;DHT22;31567;54.600;9.842;2022-07-23T20:17:06;16.80;89.00
45849;DHT22;31567;54.600;9.842;2022-07-23T20:20:46;16.60;89.30
45849;DHT22;31567;54.600;9.842;2022-07-23T20:24:26;16.60;89.70
45849;DHT22;31567;54.600;9.842;2022-07-23T20:28:06;16.50;90.00
45849;DHT22;31567;54.600;9.842;2022-07-23T20:31:46;16.30;90.20
45849;DHT22;31567;54.600;9.842;2022-07-23T20:35:26;16.30;90.30
45849;DHT22;31567;54.600;9.842;2022-07-23T20:39:07;16.20;90.40
45849;DHT22;31567;54.600;9.842;2022-07-23T20:42:46;16.10;90.50
45849;DHT22;31567;54.600;9.842;2022-07-23T20:46:26;16.10;90.60
45849;DHT22;31567;54.600;9.842;2022-07-23T20:50:07;16.00;90.70
45849;DHT22;31567;54.600;9.842;2022-07-23T20:53:49;15.90;90.90
45849;DHT22;31567;54.600;9.842;2022-07-23T20:57:29;15.90;90.90
45849;DHT22;31567;54.600;9.842;2022-07-23T21:01:08;15.80;90.90
45849;DHT22;31567;54.600;9.842;2022-07-23T21:04:48;15.80;91.10
45849;DHT22;31567;54.600;9.842;2022-07-23T21:08:29;15.70;91.10
45849;DHT22;31567;54.600;9.842;2022-07-23T21:12:08;15.60;91.30
45849;DHT22;31567;54.600;9.842;2022-07-23T21:15:48;15.60;91.40
45849;DHT22;31567;54.600;9.842;2022-07-23T21:19:28;15.50;91.50
45849;DHT22;31567;54.600;9.842;2022-07-23T21:23:07;15.40;91.30
45849;DHT22;31567;54.600;9.842;2022-07-23T21:26:47;15.30;91.60
45849;DHT22;31567;54.600;9.842;2022-07-23T21:30:27;15.40;91.70
45849;DHT22;31567;54.600;9.842;2022-07-23T21:34:06;15.30;91.80
45849;DHT22;31567;54.600;9.842;2022-07-23T21:37:46;15.30;91.80
45849;DHT22;31567;54.600;9.842;2022-07-23T21:41:26;15.30;91.80
45849;DHT22;31567;54.600;9.842;2022-07-23T21:45:10;15.20;91.80
45849;DHT22;31567;54.600;9.842;2022-07-23T21:48:50;15.10;92.00
45849;DHT22;31567;54.600;9.842;2022-07-23T21:52:30;15.00;92.20
45849;DHT22;31567;54.600;9.842;2022-07-23T21:56:12;14.90;91.90
45849;DHT22;31567;54.600;9.842;2022-07-23T21:59:51;14.80;92.00
45849;DHT22;31567;54.600;9.842;2022-07-23T22:03:31;14.80;92.10
45849;DHT22;31567;54.600;9.842;2022-07-23T22:07:10;14.70;92.30
45849;DHT22;31567;54.600;9.842;2022-07-23T22:10:50;14.70;92.30
45849;DHT22;31567;54.600;9.842;2022-07-23T22:14:30;14.60;92.30
45849;DHT22;31567;54.600;9.842;2022-07-23T22:18:09;14.40;92.20
45849;DHT22;31567;54.600;9.842;2022-07-23T22:21:49;14.40;92.40
45849;DHT22;31567;54.600;9.842;2022-07-23T22:25:28;14.30;92.70
45849;DHT22;31567;54.600;9.842;2022-07-23T22:29:08;14.10;92.80
45849;DHT22;31567;54.600;9.842;2022-07-23T22:32:48;14.20;93.00
45849;DHT22;31567;54.600;9.842;2022-07-23T22:36:28;14.10;92.90
45849;DHT22;31567;54.600;9.842;2022-07-23T22:40:08;14.00;92.80
45849;DHT22;31567;54.600;9.842;2022-07-23T22:43:48;13.90;92.70
45849;DHT22;31567;54.600;9.842;2022-07-23T22:47:28;13.80;92.80
45849;DHT22;31567;54.600;9.842;2022-07-23T22:51:07;13.60;92.90
45849;DHT22;31567;54.600;9.842;2022-07-23T22:54:47;13.60;93.10
45849;DHT22;31567;54.600;9.842;2022-07-23T22:58:26;13.60;93.20
45849;DHT22;31567;54.600;9.842;2022-07-23T23:02:06;13.50;93.40
45849;DHT22;31567;54.600;9.842;2022-07-23T23:05:46;13.40;93.30
45849;DHT22;31567;54.600;9.842;2022-07-23T23:09:25;13.40;93.50
45849;DHT22;31567;54.600;9.842;2022-07-23T23:13:05;13.30;93.70
45849;DHT22;31567;54.600;9.842;2022-07-23T23:16:45;13.20;93.60
45849;DHT22;31567;54.600;9.842;2022-07-23T23:20:24;13.10;93.90
45849;DHT22;31567;54.600;9.842;2022-07-23T23:24:05;13.20;94.30
45849;DHT22;31567;54.600;9.842;2022-07-23T23:27:44;13.10;94.40
45849;DHT22;31567;54.600;9.842;2022-07-23T23:31:24;12.90;94.30
45849;DHT22;31567;54.600;9.842;2022-07-23T23:35:04;13.00;94.50
45849;DHT22;31567;54.600;9.842;2022-07-23T23:38:44;12.90;94.60
45849;DHT22;31567;54.600;9.842;2022-07-23T23:42:23;12.90;94.80